DUZEAR1 KGRB-KTVC
Flight info
| Callsign | DUZEAR1 |
|---|---|
| Flight time | 0h 40m |
| Altitude | 13000 |
| Route | KGRB/18 N0272F130 DCT MAZTT DCT FRZZN DCT PRIME DCT ZUXIN DCT VULHU DCT ZIVKU DCT CUBKO DCT KTVC/18 |
| Aircraft | PC12/L-SDE2FGIRWY/SB1 |
Departure
| Time | 2026-04-12 21:18 |
|---|---|
| Airport | Austin Straubel International Airport (KGRB) |
Arrival
| Time | 2026-04-12 21:59 |
|---|---|
| Airport | Cherry Capital Airport (KTVC) |
| Time | Latitude | Longitude | Altitude | Speed | Heading |
|---|---|---|---|---|---|
| 2026-04-12 20:29 | 44.49279 | -88.11866 | 694 ft | 0 kts | 61° |
| 2026-04-12 21:14 | 44.49287 | -88.11789 | 694 ft | 21 kts | 100° |
| 2026-04-12 21:14 | 44.49216 | -88.11771 | 694 ft | 20 kts | 237° |
| 2026-04-12 21:15 | 44.49101 | -88.12048 | 690 ft | 39 kts | 240° |
| 2026-04-12 21:15 | 44.49004 | -88.12284 | 694 ft | 18 kts | 240° |
| 2026-04-12 21:15 | 44.48923 | -88.12478 | 690 ft | 24 kts | 239° |
| 2026-04-12 21:15 | 44.48820 | -88.12726 | 691 ft | 34 kts | 240° |
| 2026-04-12 21:16 | 44.48750 | -88.12896 | 692 ft | 3 kts | 240° |
| 2026-04-12 21:16 | 44.48706 | -88.13004 | 692 ft | 28 kts | 240° |
| 2026-04-12 21:16 | 44.48618 | -88.13212 | 695 ft | 11 kts | 238° |
| 2026-04-12 21:16 | 44.48691 | -88.13213 | 695 ft | 31 kts | 359° |
| 2026-04-12 21:17 | 44.48933 | -88.13211 | 694 ft | 26 kts | 2° |
| 2026-04-12 21:17 | 44.49069 | -88.13212 | 694 ft | 20 kts | 360° |
| 2026-04-12 21:17 | 44.49194 | -88.13211 | 690 ft | 3 kts | 1° |
| 2026-04-12 21:17 | 44.49237 | -88.13294 | 692 ft | 17 kts | 267° |
| 2026-04-12 21:18 | 44.49097 | -88.13366 | 694 ft | 39 kts | 180° |
| 2026-04-12 21:18 | 44.48615 | -88.13366 | 721 ft | 96 kts | 180° |
| 2026-04-12 21:18 | 44.47849 | -88.13358 | 1064 ft | 122 kts | 180° |
| 2026-04-12 21:18 | 44.46953 | -88.13355 | 1616 ft | 132 kts | 186° |
| 2026-04-12 21:19 | 44.46042 | -88.13356 | 2281 ft | 129 kts | 187° |
| 2026-04-12 21:19 | 44.45120 | -88.13358 | 2850 ft | 138 kts | 189° |
| 2026-04-12 21:19 | 44.44120 | -88.13347 | 3468 ft | 149 kts | 185° |
| 2026-04-12 21:19 | 44.43076 | -88.12980 | 4103 ft | 161 kts | 169° |
| 2026-04-12 21:20 | 44.42070 | -88.12129 | 4695 ft | 180 kts | 153° |
| 2026-04-12 21:20 | 44.41196 | -88.10655 | 4981 ft | 217 kts | 130° |
| 2026-04-12 21:20 | 44.40758 | -88.08484 | 5211 ft | 244 kts | 99° |
| 2026-04-12 21:20 | 44.41016 | -88.06219 | 6167 ft | 228 kts | 76° |
| 2026-04-12 21:21 | 44.41478 | -88.04225 | 7316 ft | 204 kts | 76° |
| 2026-04-12 21:21 | 44.41894 | -88.02358 | 8257 ft | 203 kts | 76° |
| 2026-04-12 21:21 | 44.42317 | -88.00449 | 9080 ft | 207 kts | 75° |
| 2026-04-12 21:21 | 44.42751 | -87.98518 | 9915 ft | 210 kts | 75° |
| 2026-04-12 21:22 | 44.43180 | -87.96607 | 10741 ft | 209 kts | 74° |
| 2026-04-12 21:22 | 44.43615 | -87.94667 | 11567 ft | 209 kts | 74° |
| 2026-04-12 21:22 | 44.44050 | -87.92715 | 12372 ft | 212 kts | 74° |
| 2026-04-12 21:22 | 44.44499 | -87.90703 | 12881 ft | 212 kts | 73° |
| 2026-04-12 21:23 | 44.44964 | -87.88612 | 13030 ft | 246 kts | 73° |
| 2026-04-12 21:23 | 44.45508 | -87.86165 | 13041 ft | 279 kts | 73° |
| 2026-04-12 21:23 | 44.46103 | -87.83490 | 13034 ft | 295 kts | 73° |
| 2026-04-12 21:23 | 44.46720 | -87.80703 | 13037 ft | 302 kts | 73° |
| 2026-04-12 21:24 | 44.47344 | -87.77884 | 13037 ft | 304 kts | 73° |
| 2026-04-12 21:24 | 44.47968 | -87.75057 | 13044 ft | 305 kts | 73° |
| 2026-04-12 21:24 | 44.48597 | -87.72206 | 13048 ft | 306 kts | 73° |
| 2026-04-12 21:24 | 44.49222 | -87.69367 | 13049 ft | 306 kts | 73° |
| 2026-04-12 21:25 | 44.49850 | -87.66517 | 13056 ft | 306 kts | 73° |
| 2026-04-12 21:25 | 44.50475 | -87.63673 | 13064 ft | 305 kts | 73° |
| 2026-04-12 21:25 | 44.51098 | -87.60828 | 13066 ft | 305 kts | 73° |
| 2026-04-12 21:25 | 44.51722 | -87.57984 | 13065 ft | 305 kts | 73° |
| 2026-04-12 21:26 | 44.52343 | -87.55145 | 13061 ft | 305 kts | 73° |
| 2026-04-12 21:26 | 44.53583 | -87.49470 | 13060 ft | 304 kts | 73° |
| 2026-04-12 21:26 | 44.54202 | -87.46631 | 13058 ft | 304 kts | 73° |
| 2026-04-12 21:27 | 44.54819 | -87.43791 | 13055 ft | 304 kts | 73° |
| 2026-04-12 21:27 | 44.55436 | -87.40952 | 13056 ft | 304 kts | 73° |
| 2026-04-12 21:27 | 44.56052 | -87.38115 | 13056 ft | 304 kts | 73° |
| 2026-04-12 21:27 | 44.56667 | -87.35282 | 13050 ft | 304 kts | 73° |
| 2026-04-12 21:28 | 44.57281 | -87.32442 | 13053 ft | 304 kts | 73° |
| 2026-04-12 21:28 | 44.57894 | -87.29603 | 13050 ft | 304 kts | 73° |
| 2026-04-12 21:28 | 44.58508 | -87.26761 | 13051 ft | 305 kts | 73° |
| 2026-04-12 21:28 | 44.59121 | -87.23920 | 13049 ft | 305 kts | 73° |
| 2026-04-12 21:29 | 44.59735 | -87.21075 | 13051 ft | 305 kts | 73° |
| 2026-04-12 21:29 | 44.60140 | -87.19191 | 13053 ft | 305 kts | 73° |
| 2026-04-12 21:29 | 44.60511 | -87.17436 | 13050 ft | 304 kts | 75° |
| 2026-04-12 21:29 | 44.60847 | -87.14524 | 13043 ft | 303 kts | 84° |
| 2026-04-12 21:30 | 44.61102 | -87.11585 | 13045 ft | 303 kts | 84° |
| 2026-04-12 21:30 | 44.61377 | -87.08654 | 13046 ft | 303 kts | 83° |
| 2026-04-12 21:30 | 44.61652 | -87.05717 | 13047 ft | 304 kts | 84° |
| 2026-04-12 21:30 | 44.61920 | -87.02780 | 13049 ft | 303 kts | 84° |
| 2026-04-12 21:31 | 44.62185 | -86.99840 | 13049 ft | 303 kts | 84° |
| 2026-04-12 21:31 | 44.62450 | -86.96907 | 13045 ft | 303 kts | 84° |
| 2026-04-12 21:31 | 44.62716 | -86.93973 | 13047 ft | 303 kts | 84° |
| 2026-04-12 21:31 | 44.62982 | -86.91038 | 13048 ft | 303 kts | 84° |
| 2026-04-12 21:32 | 44.63246 | -86.88103 | 13049 ft | 303 kts | 84° |
| 2026-04-12 21:32 | 44.63509 | -86.85162 | 13051 ft | 304 kts | 83° |
| 2026-04-12 21:32 | 44.63773 | -86.82222 | 13048 ft | 304 kts | 83° |
| 2026-04-12 21:32 | 44.64036 | -86.79281 | 13050 ft | 303 kts | 84° |
| 2026-04-12 21:33 | 44.64297 | -86.76338 | 13052 ft | 304 kts | 83° |
| 2026-04-12 21:33 | 44.64557 | -86.73389 | 13054 ft | 304 kts | 84° |
| 2026-04-12 21:33 | 44.64817 | -86.70444 | 13054 ft | 304 kts | 83° |
| 2026-04-12 21:33 | 44.65077 | -86.67499 | 13055 ft | 304 kts | 83° |
| 2026-04-12 21:34 | 44.65339 | -86.64525 | 12723 ft | 312 kts | 84° |
| 2026-04-12 21:34 | 44.65604 | -86.61506 | 12264 ft | 306 kts | 84° |
| 2026-04-12 21:34 | 44.65859 | -86.58582 | 11926 ft | 299 kts | 84° |
| 2026-04-12 21:34 | 44.66111 | -86.55692 | 11674 ft | 297 kts | 84° |
| 2026-04-12 21:35 | 44.66360 | -86.52815 | 11423 ft | 297 kts | 84° |
| 2026-04-12 21:35 | 44.66609 | -86.49934 | 11177 ft | 297 kts | 84° |
| 2026-04-12 21:35 | 44.66817 | -86.47056 | 10933 ft | 296 kts | 87° |
| 2026-04-12 21:35 | 44.67005 | -86.44172 | 10694 ft | 297 kts | 86° |
| 2026-04-12 21:36 | 44.67213 | -86.41289 | 10454 ft | 297 kts | 85° |
| 2026-04-12 21:36 | 44.67410 | -86.38399 | 10216 ft | 297 kts | 86° |
| 2026-04-12 21:36 | 44.67596 | -86.35508 | 9984 ft | 297 kts | 86° |
| 2026-04-12 21:36 | 44.67832 | -86.32627 | 9744 ft | 298 kts | 79° |
| 2026-04-12 21:37 | 44.68508 | -86.29931 | 9485 ft | 297 kts | 62° |
| 2026-04-12 21:37 | 44.69658 | -86.27506 | 9219 ft | 292 kts | 47° |
| 2026-04-12 21:37 | 44.70947 | -86.25297 | 8967 ft | 292 kts | 47° |
| 2026-04-12 21:37 | 44.72207 | -86.23114 | 8718 ft | 291 kts | 47° |
| 2026-04-12 21:38 | 44.73496 | -86.20868 | 8462 ft | 291 kts | 47° |
| 2026-04-12 21:38 | 44.74769 | -86.18654 | 8211 ft | 291 kts | 47° |
| 2026-04-12 21:38 | 44.76045 | -86.16438 | 7970 ft | 291 kts | 47° |
| 2026-04-12 21:38 | 44.76885 | -86.14977 | 7805 ft | 290 kts | 47° |
| 2026-04-12 21:39 | 44.78055 | -86.12938 | 7576 ft | 290 kts | 48° |
| 2026-04-12 21:39 | 44.79319 | -86.10733 | 7330 ft | 290 kts | 47° |
| 2026-04-12 21:39 | 44.80585 | -86.08524 | 7094 ft | 289 kts | 47° |
| 2026-04-12 21:39 | 44.81779 | -86.06435 | 6787 ft | 256 kts | 48° |
| 2026-04-12 21:40 | 44.82844 | -86.04567 | 6361 ft | 255 kts | 47° |
| 2026-04-12 21:40 | 44.84059 | -86.02477 | 5949 ft | 283 kts | 48° |
| 2026-04-12 21:40 | 44.85287 | -86.00328 | 5546 ft | 285 kts | 49° |
| 2026-04-12 21:40 | 44.86509 | -85.98171 | 5132 ft | 264 kts | 49° |
| 2026-04-12 21:41 | 44.87598 | -85.96251 | 4701 ft | 254 kts | 49° |
| 2026-04-12 21:41 | 44.88667 | -85.94387 | 4267 ft | 246 kts | 50° |
| 2026-04-12 21:41 | 44.89820 | -85.92374 | 3854 ft | 278 kts | 50° |
| 2026-04-12 21:41 | 44.90926 | -85.90116 | 3534 ft | 279 kts | 68° |
| 2026-04-12 21:42 | 44.91422 | -85.87696 | 3496 ft | 242 kts | 86° |
| 2026-04-12 21:42 | 44.91695 | -85.85385 | 3492 ft | 233 kts | 89° |
| 2026-04-12 21:42 | 44.91990 | -85.83224 | 3488 ft | 216 kts | 85° |
| 2026-04-12 21:42 | 44.92330 | -85.81206 | 3486 ft | 208 kts | 85° |
| 2026-04-12 21:43 | 44.92663 | -85.79236 | 3517 ft | 204 kts | 84° |
| 2026-04-12 21:43 | 44.92987 | -85.77287 | 3526 ft | 203 kts | 85° |
| 2026-04-12 21:43 | 44.93310 | -85.75316 | 3513 ft | 207 kts | 84° |
| 2026-04-12 21:43 | 44.93632 | -85.73384 | 3506 ft | 198 kts | 84° |
| 2026-04-12 21:44 | 44.93947 | -85.71457 | 3519 ft | 204 kts | 85° |
| 2026-04-12 21:44 | 44.94268 | -85.69511 | 3506 ft | 201 kts | 84° |
| 2026-04-12 21:44 | 44.94585 | -85.67594 | 3507 ft | 203 kts | 84° |
| 2026-04-12 21:44 | 44.94900 | -85.65657 | 3505 ft | 204 kts | 84° |
| 2026-04-12 21:45 | 44.95226 | -85.63673 | 3510 ft | 206 kts | 84° |
| 2026-04-12 21:45 | 44.95550 | -85.61719 | 3508 ft | 205 kts | 85° |
| 2026-04-12 21:45 | 44.95868 | -85.59768 | 3511 ft | 203 kts | 85° |
| 2026-04-12 21:45 | 44.96260 | -85.57846 | 3501 ft | 209 kts | 68° |
| 2026-04-12 21:46 | 44.97259 | -85.56396 | 3500 ft | 205 kts | 20° |
| 2026-04-12 21:46 | 44.98570 | -85.56069 | 3505 ft | 185 kts | 343° |
| 2026-04-12 21:46 | 44.99853 | -85.56190 | 3521 ft | 185 kts | 342° |
| 2026-04-12 21:46 | 45.00310 | -85.56221 | 3512 ft | 186 kts | 343° |
| 2026-04-12 21:47 | 45.01552 | -85.56451 | 3499 ft | 169 kts | 321° |
| 2026-04-12 21:47 | 45.02427 | -85.57341 | 3497 ft | 146 kts | 294° |
| 2026-04-12 21:47 | 45.02888 | -85.58504 | 3498 ft | 129 kts | 272° |
| 2026-04-12 21:47 | 45.02988 | -85.59699 | 3499 ft | 118 kts | 256° |
| 2026-04-12 21:48 | 45.02797 | -85.60787 | 3508 ft | 112 kts | 242° |
| 2026-04-12 21:48 | 45.02368 | -85.61703 | 3506 ft | 114 kts | 228° |
| 2026-04-12 21:48 | 45.01741 | -85.62371 | 3503 ft | 112 kts | 215° |
| 2026-04-12 21:48 | 45.01007 | -85.62797 | 3505 ft | 119 kts | 202° |
| 2026-04-12 21:49 | 45.00143 | -85.62804 | 3509 ft | 131 kts | 185° |
| 2026-04-12 21:49 | 44.99264 | -85.62272 | 3507 ft | 148 kts | 162° |
| 2026-04-12 21:49 | 44.98450 | -85.61355 | 3508 ft | 150 kts | 160° |
| 2026-04-12 21:49 | 44.97635 | -85.60447 | 3501 ft | 148 kts | 160° |
| 2026-04-12 21:50 | 44.96819 | -85.59561 | 3512 ft | 148 kts | 164° |
| 2026-04-12 21:50 | 44.95930 | -85.58957 | 3509 ft | 135 kts | 178° |
| 2026-04-12 21:50 | 44.95047 | -85.58698 | 3504 ft | 125 kts | 190° |
| 2026-04-12 21:50 | 44.94209 | -85.58686 | 3503 ft | 114 kts | 195° |
| 2026-04-12 21:51 | 44.93535 | -85.58672 | 3488 ft | 89 kts | 199° |
| 2026-04-12 21:51 | 44.92881 | -85.58691 | 3494 ft | 96 kts | 197° |
| 2026-04-12 21:51 | 44.92267 | -85.58685 | 3497 ft | 83 kts | 199° |
| 2026-04-12 21:51 | 44.91638 | -85.58703 | 3520 ft | 94 kts | 197° |
| 2026-04-12 21:52 | 44.91031 | -85.58695 | 3514 ft | 83 kts | 199° |
| 2026-04-12 21:52 | 44.90403 | -85.58710 | 3515 ft | 94 kts | 197° |
| 2026-04-12 21:52 | 44.89780 | -85.58705 | 3479 ft | 87 kts | 198° |
| 2026-04-12 21:52 | 44.89169 | -85.58712 | 3384 ft | 92 kts | 197° |
| 2026-04-12 21:53 | 44.88571 | -85.58704 | 3261 ft | 78 kts | 198° |
| 2026-04-12 21:53 | 44.87985 | -85.58719 | 3165 ft | 89 kts | 197° |
| 2026-04-12 21:53 | 44.87381 | -85.58716 | 3047 ft | 84 kts | 197° |
| 2026-04-12 21:53 | 44.86799 | -85.58719 | 2934 ft | 83 kts | 197° |
| 2026-04-12 21:54 | 44.86230 | -85.58720 | 2825 ft | 81 kts | 196° |
| 2026-04-12 21:54 | 44.85680 | -85.58723 | 2727 ft | 79 kts | 196° |
| 2026-04-12 21:54 | 44.85122 | -85.58727 | 2620 ft | 81 kts | 195° |
| 2026-04-12 21:54 | 44.84555 | -85.58730 | 2512 ft | 82 kts | 195° |
| 2026-04-12 21:55 | 44.83989 | -85.58732 | 2401 ft | 81 kts | 195° |
| 2026-04-12 21:55 | 44.83425 | -85.58734 | 2293 ft | 81 kts | 194° |
| 2026-04-12 21:55 | 44.82859 | -85.58737 | 2183 ft | 81 kts | 194° |
| 2026-04-12 21:55 | 44.82290 | -85.58740 | 2071 ft | 82 kts | 193° |
| 2026-04-12 21:56 | 44.81706 | -85.58745 | 1961 ft | 86 kts | 190° |
| 2026-04-12 21:56 | 44.81092 | -85.58746 | 1844 ft | 92 kts | 189° |
| 2026-04-12 21:56 | 44.80457 | -85.58746 | 1721 ft | 85 kts | 186° |
| 2026-04-12 21:56 | 44.79953 | -85.58742 | 1565 ft | 64 kts | 187° |
| 2026-04-12 21:57 | 44.79481 | -85.58748 | 1491 ft | 77 kts | 185° |
| 2026-04-12 21:57 | 44.78912 | -85.58753 | 1403 ft | 79 kts | 183° |
| 2026-04-12 21:57 | 44.78410 | -85.58754 | 1274 ft | 69 kts | 185° |
| 2026-04-12 21:57 | 44.77895 | -85.58756 | 1210 ft | 81 kts | 183° |
| 2026-04-12 21:58 | 44.77331 | -85.58760 | 1091 ft | 78 kts | 182° |
| 2026-04-12 21:58 | 44.76805 | -85.58752 | 1027 ft | 76 kts | 181° |
| 2026-04-12 21:58 | 44.76276 | -85.58770 | 981 ft | 77 kts | 183° |
| 2026-04-12 21:58 | 44.75756 | -85.58775 | 855 ft | 75 kts | 178° |
| 2026-04-12 21:59 | 44.75205 | -85.58766 | 725 ft | 77 kts | 181° |
| 2026-04-12 21:59 | 44.74700 | -85.58770 | 632 ft | 64 kts | 180° |
| 2026-04-12 21:59 | 44.74392 | -85.58773 | 625 ft | 15 kts | 179° |
| 2026-04-12 21:59 | 44.74270 | -85.58727 | 625 ft | 25 kts | 90° |
| 2026-04-12 22:00 | 44.74345 | -85.58603 | 623 ft | 3 kts | 1° |
| 2026-04-12 22:00 | 44.74346 | -85.58603 | 623 ft | 0 kts | 357° |
| 2026-04-12 22:01 | 44.74389 | -85.58602 | 623 ft | 15 kts | 1° |
| 2026-04-12 22:01 | 44.74472 | -85.58602 | 628 ft | 9 kts | 360° |
| 2026-04-12 22:01 | 44.74490 | -85.58602 | 629 ft | 0 kts | 360° |
| 2026-04-12 22:02 | 44.74496 | -85.58602 | 623 ft | 6 kts | 0° |
| 2026-04-12 22:02 | 44.74548 | -85.58602 | 623 ft | 8 kts | 5° |
| 2026-04-12 22:02 | 44.74565 | -85.58530 | 623 ft | 7 kts | 88° |
| 2026-04-12 22:03 | 44.74583 | -85.58413 | 626 ft | 14 kts | 7° |
| 2026-04-12 22:03 | 44.74629 | -85.58414 | 627 ft | 1 kts | 310° |
| 2026-04-12 22:03 | 44.74632 | -85.58447 | 624 ft | 0 kts | 268° |
| 2026-04-12 22:03 | 44.74632 | -85.58446 | 625 ft | 0 kts | 268° |